Gladiator — EA5097 — position and weather

sailwx.info

Track history (hours):
 
Tides and Currents Weather Stations Pressure Air Temp Water Temp Dewpoint Dewpoint Depression Visibility Wind Speed Wind Dir Waves Ship Positions

Gladiator

Last reported at 2018-Jun-25 07:59 UTC. Time now 2018-Jun-25 08:20 UTC.
Position N 39°31' E 002°41'.

Length 13 m.

Type: Sailing vessel. MMSI: 225970780.

Date/timePositionNaut miles runAvg speedWind from/ knotsBaromVisibWave heightAir tempDewpointWater temp
2018-Jun-25 07:59N 39°31' E 002°41'3 6.0
2018-Jun-25 07:30N 39°33' E 002°39'1 1.9
2018-Jun-25 06:57N 39°34' E 002°38'0 0.0
2018-Jun-25 06:30N 39°34' E 002°38'0 0.0
2018-Jun-25 06:00N 39°34' E 002°38'0 0.0
2018-Jun-25 05:30N 39°34' E 002°38'0 0.0
2018-Jun-25 04:59N 39°34' E 002°38'0 0.0
2018-Jun-25 04:28N 39°34' E 002°38'0 0.0
2018-Jun-25 03:58N 39°34' E 002°38'0 0.0
2018-Jun-25 03:29N 39°34' E 002°38'0 0.0
2018-Jun-25 02:59N 39°34' E 002°38'0 0.0
2018-Jun-25 02:29N 39°34' E 002°38'0 0.0
2018-Jun-25 01:59N 39°34' E 002°38'0 0.0
2018-Jun-25 01:29N 39°34' E 002°38'0 0.0
2018-Jun-25 00:59N 39°34' E 002°38'1 1.8
2018-Jun-25 00:30N 39°33' E 002°38'3 6.1
2018-Jun-25 00:00N 39°30' E 002°39'  
2018-Jun-18 09:37N 39°25' E 002°44'1 1.5
2018-Jun-18 08:42N 39°26' E 002°45'1 5.7
2018-Jun-18 08:30N 39°27' E 002°44'3 6.2
2018-Jun-18 08:00N 39°30' E 002°42'3 6.1
2018-Jun-18 07:30N 39°32' E 002°39'2 3.5
2018-Jun-18 06:59N 39°34' E 002°38'0 0.0
2018-Jun-17 16:19N 39°34' E 002°38'0 0.3
2018-Jun-17 15:59N 39°34' E 002°38'2 4.9
2018-Jun-17 15:30N 39°32' E 002°36'1 0.0
2018-Jun-16 17:39N 39°32' E 002°35'1 5.9
2018-Jun-16 17:29N 39°32' E 002°37'2 4.5
2018-Jun-16 16:59N 39°34' E 002°38'0 0.0
2018-Jun-16 16:28N 39°34' E 002°38'1 1.2
2018-Jun-16 16:00N 39°33' E 002°38'3 6.2
2018-Jun-16 15:27N 39°31' E 002°41'3 6.3
2018-Jun-16 15:00N 39°29' E 002°44'0 0.1
2018-Jun-16 14:21N 39°29' E 002°44'0 0.0
2018-Jun-16 13:54N 39°29' E 002°44'1 1.9
2018-Jun-16 13:29N 39°30' E 002°44'3 6.0
2018-Jun-16 13:00N 39°32' E 002°41'3 5.8
2018-Jun-16 12:30N 39°34' E 002°38'0 0.3
2018-Jun-16 12:00N 39°34' E 002°38'0 0.0
2018-Jun-16 11:28N 39°34' E 002°38'0 0.0
2018-Jun-16 10:58N 39°34' E 002°38'0 0.0
2018-Jun-16 10:28N 39°34' E 002°38'0 0.0
2018-Jun-16 09:58N 39°34' E 002°38'0 0.0
2018-Jun-16 09:30N 39°34' E 002°38'0 0.4
2018-Jun-16 09:00N 39°34' E 002°38'  
Track history (hours):
 
Tides and Currents Weather Stations Pressure Air Temp Water Temp Dewpoint Dewpoint Depression Visibility Wind Speed Wind Dir Waves Ship Positions

Gladiator

Last reported at 2018-Jun-25 07:59 UTC. Time now 2018-Jun-25 08:20 UTC.
Position N 39°31' E 002°41'.

Length 13 m.

Type: Sailing vessel. MMSI: 225970780.

Date/timePositionNaut miles runAvg speedWind from/ knotsBaromVisibWave heightAir tempDewpointWater temp
2018-Jun-25 07:59N 39°31' E 002°41'3 6.0
2018-Jun-25 07:30N 39°33' E 002°39'1 1.9
2018-Jun-25 06:57N 39°34' E 002°38'0 0.0
2018-Jun-25 06:30N 39°34' E 002°38'0 0.0
2018-Jun-25 06:00N 39°34' E 002°38'0 0.0
2018-Jun-25 05:30N 39°34' E 002°38'0 0.0
2018-Jun-25 04:59N 39°34' E 002°38'0 0.0
2018-Jun-25 04:28N 39°34' E 002°38'0 0.0
2018-Jun-25 03:58N 39°34' E 002°38'0 0.0
2018-Jun-25 03:29N 39°34' E 002°38'0 0.0
2018-Jun-25 02:59N 39°34' E 002°38'0 0.0
2018-Jun-25 02:29N 39°34' E 002°38'0 0.0
2018-Jun-25 01:59N 39°34' E 002°38'0 0.0
2018-Jun-25 01:29N 39°34' E 002°38'0 0.0
2018-Jun-25 00:59N 39°34' E 002°38'1 1.8
2018-Jun-25 00:30N 39°33' E 002°38'3 6.1
2018-Jun-25 00:00N 39°30' E 002°39'  
2018-Jun-18 09:37N 39°25' E 002°44'1 1.5
2018-Jun-18 08:42N 39°26' E 002°45'1 5.7
2018-Jun-18 08:30N 39°27' E 002°44'3 6.2
2018-Jun-18 08:00N 39°30' E 002°42'3 6.1
2018-Jun-18 07:30N 39°32' E 002°39'2 3.5
2018-Jun-18 06:59N 39°34' E 002°38'0 0.0
2018-Jun-17 16:19N 39°34' E 002°38'0 0.3
2018-Jun-17 15:59N 39°34' E 002°38'2 4.9
2018-Jun-17 15:30N 39°32' E 002°36'1 0.0
2018-Jun-16 17:39N 39°32' E 002°35'1 5.9
2018-Jun-16 17:29N 39°32' E 002°37'2 4.5
2018-Jun-16 16:59N 39°34' E 002°38'0 0.0
2018-Jun-16 16:28N 39°34' E 002°38'1 1.2
2018-Jun-16 16:00N 39°33' E 002°38'3 6.2
2018-Jun-16 15:27N 39°31' E 002°41'3 6.3
2018-Jun-16 15:00N 39°29' E 002°44'0 0.1
2018-Jun-16 14:21N 39°29' E 002°44'0 0.0
2018-Jun-16 13:54N 39°29' E 002°44'1 1.9
2018-Jun-16 13:29N 39°30' E 002°44'3 6.0
2018-Jun-16 13:00N 39°32' E 002°41'3 5.8
2018-Jun-16 12:30N 39°34' E 002°38'0 0.3
2018-Jun-16 12:00N 39°34' E 002°38'0 0.0
2018-Jun-16 11:28N 39°34' E 002°38'0 0.0
2018-Jun-16 10:58N 39°34' E 002°38'0 0.0
2018-Jun-16 10:28N 39°34' E 002°38'0 0.0
2018-Jun-16 09:58N 39°34' E 002°38'0 0.0
2018-Jun-16 09:30N 39°34' E 002°38'0 0.4
2018-Jun-16 09:00N 39°34' E 002°38'  

Dump ship's entire track history